sensor_id;sensor_type;location;lat;lon;timestamp;P1;durP1;ratioP1;P2;durP2;ratioP2
71423;SDS011;59240;51.370;-0.486;2022-09-09T00:01:10;31.15;;;8.88;;
71423;SDS011;59240;51.370;-0.486;2022-09-09T00:03:47;31.90;;;8.98;;
71423;SDS011;59240;51.370;-0.486;2022-09-09T00:06:28;33.85;;;10.23;;
71423;SDS011;59240;51.370;-0.486;2022-09-09T00:09:01;30.27;;;9.13;;
71423;SDS011;59240;51.370;-0.486;2022-09-09T00:11:40;29.08;;;9.20;;
71423;SDS011;59240;51.370;-0.486;2022-09-09T00:14:22;29.63;;;8.43;;
71423;SDS011;59240;51.370;-0.486;2022-09-09T00:17:01;27.25;;;7.72;;
71423;SDS011;59240;51.370;-0.486;2022-09-09T00:19:44;32.50;;;9.13;;
71423;SDS011;59240;51.370;-0.486;2022-09-09T00:22:19;28.50;;;7.22;;
71423;SDS011;59240;51.370;-0.486;2022-09-09T00:24:54;28.08;;;7.18;;
71423;SDS011;59240;51.370;-0.486;2022-09-09T00:27:28;34.78;;;7.65;;
71423;SDS011;59240;51.370;-0.486;2022-09-09T00:30:15;24.92;;;6.80;;
71423;SDS011;59240;51.370;-0.486;2022-09-09T00:33:02;23.63;;;6.45;;
71423;SDS011;59240;51.370;-0.486;2022-09-09T00:35:40;23.15;;;6.53;;
71423;SDS011;59240;51.370;-0.486;2022-09-09T00:40:59;42.38;;;7.88;;
71423;SDS011;59240;51.370;-0.486;2022-09-09T00:43:32;27.58;;;6.60;;
71423;SDS011;59240;51.370;-0.486;2022-09-09T00:48:50;32.35;;;8.45;;
71423;SDS011;59240;51.370;-0.486;2022-09-09T01:02:21;23.10;;;6.55;;
71423;SDS011;59240;51.370;-0.486;2022-09-09T01:04:51;20.98;;;6.68;;
71423;SDS011;59240;51.370;-0.486;2022-09-09T01:07:18;24.65;;;6.15;;
71423;SDS011;59240;51.370;-0.486;2022-09-09T01:09:50;17.83;;;6.22;;
71423;SDS011;59240;51.370;-0.486;2022-09-09T01:28:13;36.13;;;7.25;;
71423;SDS011;59240;51.370;-0.486;2022-09-09T01:30:45;30.88;;;7.30;;
71423;SDS011;59240;51.370;-0.486;2022-09-09T01:33:13;22.55;;;6.63;;
71423;SDS011;59240;51.370;-0.486;2022-09-09T01:38:27;20.85;;;6.20;;
71423;SDS011;59240;51.370;-0.486;2022-09-09T01:40:55;30.42;;;7.07;;
71423;SDS011;59240;51.370;-0.486;2022-09-09T01:43:21;23.58;;;6.65;;
71423;SDS011;59240;51.370;-0.486;2022-09-09T01:45:50;20.73;;;6.22;;
71423;SDS011;59240;51.370;-0.486;2022-09-09T01:48:21;23.35;;;6.90;;
71423;SDS011;59240;51.370;-0.486;2022-09-09T01:50:49;22.98;;;6.38;;
71423;SDS011;59240;51.370;-0.486;2022-09-09T01:53:16;29.02;;;6.25;;
71423;SDS011;59240;51.370;-0.486;2022-09-09T01:55:47;21.58;;;6.25;;
71423;SDS011;59240;51.370;-0.486;2022-09-09T02:03:52;31.95;;;6.65;;
71423;SDS011;59240;51.370;-0.486;2022-09-09T02:09:06;30.25;;;6.78;;
71423;SDS011;59240;51.370;-0.486;2022-09-09T02:11:36;24.58;;;6.45;;
71423;SDS011;59240;51.370;-0.486;2022-09-09T02:14:08;19.40;;;7.32;;
71423;SDS011;59240;51.370;-0.486;2022-09-09T02:16:40;26.90;;;7.07;;
71423;SDS011;59240;51.370;-0.486;2022-09-09T02:19:11;27.30;;;7.15;;
71423;SDS011;59240;51.370;-0.486;2022-09-09T02:21:41;22.00;;;6.57;;
71423;SDS011;59240;51.370;-0.486;2022-09-09T02:24:10;26.30;;;6.93;;
71423;SDS011;59240;51.370;-0.486;2022-09-09T02:26:39;24.33;;;7.25;;
71423;SDS011;59240;51.370;-0.486;2022-09-09T02:29:09;20.25;;;6.47;;
71423;SDS011;59240;51.370;-0.486;2022-09-09T02:31:41;22.27;;;6.20;;
71423;SDS011;59240;51.370;-0.486;2022-09-09T02:34:10;20.17;;;6.07;;
71423;SDS011;59240;51.370;-0.486;2022-09-09T02:36:38;26.85;;;6.55;;
71423;SDS011;59240;51.370;-0.486;2022-09-09T02:39:09;22.45;;;6.18;;
71423;SDS011;59240;51.370;-0.486;2022-09-09T02:41:38;24.45;;;5.95;;
71423;SDS011;59240;51.370;-0.486;2022-09-09T02:44:10;20.13;;;5.97;;
71423;SDS011;59240;51.370;-0.486;2022-09-09T02:47:04;20.27;;;5.68;;
71423;SDS011;59240;51.370;-0.486;2022-09-09T02:49:53;18.10;;;5.40;;
71423;SDS011;59240;51.370;-0.486;2022-09-09T02:52:26;22.17;;;5.43;;
71423;SDS011;59240;51.370;-0.486;2022-09-09T02:54:59;17.10;;;5.18;;
71423;SDS011;59240;51.370;-0.486;2022-09-09T02:57:33;22.10;;;5.70;;
71423;SDS011;59240;51.370;-0.486;2022-09-09T03:00:03;17.35;;;5.18;;
71423;SDS011;59240;51.370;-0.486;2022-09-09T03:02:30;21.60;;;5.07;;
71423;SDS011;59240;51.370;-0.486;2022-09-09T03:04:57;21.27;;;5.10;;
71423;SDS011;59240;51.370;-0.486;2022-09-09T03:07:24;26.98;;;6.00;;
71423;SDS011;59240;51.370;-0.486;2022-09-09T03:09:50;20.13;;;5.20;;
71423;SDS011;59240;51.370;-0.486;2022-09-09T03:12:18;21.58;;;5.32;;
71423;SDS011;59240;51.370;-0.486;2022-09-09T03:14:45;15.73;;;5.10;;
71423;SDS011;59240;51.370;-0.486;2022-09-09T03:17:12;20.23;;;5.22;;
71423;SDS011;59240;51.370;-0.486;2022-09-09T03:19:39;21.95;;;5.30;;
71423;SDS011;59240;51.370;-0.486;2022-09-09T03:22:06;18.83;;;5.53;;
71423;SDS011;59240;51.370;-0.486;2022-09-09T03:24:34;27.98;;;6.47;;
71423;SDS011;59240;51.370;-0.486;2022-09-09T03:27:01;22.83;;;5.90;;
71423;SDS011;59240;51.370;-0.486;2022-09-09T03:29:27;20.33;;;6.35;;
71423;SDS011;59240;51.370;-0.486;2022-09-09T03:31:54;23.00;;;5.90;;
71423;SDS011;59240;51.370;-0.486;2022-09-09T03:34:20;31.98;;;6.35;;
71423;SDS011;59240;51.370;-0.486;2022-09-09T03:36:47;17.63;;;6.28;;
71423;SDS011;59240;51.370;-0.486;2022-09-09T03:39:15;21.50;;;6.28;;
71423;SDS011;59240;51.370;-0.486;2022-09-09T03:41:42;18.95;;;6.35;;
71423;SDS011;59240;51.370;-0.486;2022-09-09T03:44:12;24.65;;;5.93;;
71423;SDS011;59240;51.370;-0.486;2022-09-09T03:46:39;27.27;;;7.68;;
71423;SDS011;59240;51.370;-0.486;2022-09-09T03:49:05;19.50;;;6.55;;
71423;SDS011;59240;51.370;-0.486;2022-09-09T03:51:32;22.65;;;6.32;;
71423;SDS011;59240;51.370;-0.486;2022-09-09T03:54:02;29.55;;;7.45;;
71423;SDS011;59240;51.370;-0.486;2022-09-09T03:56:31;22.70;;;6.22;;
71423;SDS011;59240;51.370;-0.486;2022-09-09T03:58:58;19.58;;;7.43;;
71423;SDS011;59240;51.370;-0.486;2022-09-09T04:01:24;24.55;;;6.53;;
71423;SDS011;59240;51.370;-0.486;2022-09-09T04:03:51;20.75;;;6.82;;
71423;SDS011;59240;51.370;-0.486;2022-09-09T04:06:18;17.67;;;6.50;;
71423;SDS011;59240;51.370;-0.486;2022-09-09T04:08:49;18.27;;;6.82;;
71423;SDS011;59240;51.370;-0.486;2022-09-09T04:11:18;16.25;;;7.05;;
71423;SDS011;59240;51.370;-0.486;2022-09-09T04:13:45;23.17;;;7.85;;
71423;SDS011;59240;51.370;-0.486;2022-09-09T04:16:12;18.30;;;7.25;;
71423;SDS011;59240;51.370;-0.486;2022-09-09T04:18:42;26.33;;;8.07;;
71423;SDS011;59240;51.370;-0.486;2022-09-09T04:21:09;20.27;;;7.50;;
71423;SDS011;59240;51.370;-0.486;2022-09-09T04:23:38;19.90;;;7.30;;
71423;SDS011;59240;51.370;-0.486;2022-09-09T04:26:05;20.77;;;8.93;;
71423;SDS011;59240;51.370;-0.486;2022-09-09T04:28:32;20.88;;;8.40;;
71423;SDS011;59240;51.370;-0.486;2022-09-09T04:31:05;24.75;;;8.90;;
71423;SDS011;59240;51.370;-0.486;2022-09-09T04:33:37;27.42;;;9.55;;
71423;SDS011;59240;51.370;-0.486;2022-09-09T04:36:06;25.33;;;8.60;;
71423;SDS011;59240;51.370;-0.486;2022-09-09T04:38:33;28.60;;;10.00;;
71423;SDS011;59240;51.370;-0.486;2022-09-09T04:41:00;24.13;;;9.18;;
71423;SDS011;59240;51.370;-0.486;2022-09-09T04:43:27;21.88;;;8.85;;
71423;SDS011;59240;51.370;-0.486;2022-09-09T04:45:54;27.88;;;9.77;;
71423;SDS011;59240;51.370;-0.486;2022-09-09T04:48:21;21.40;;;9.25;;
71423;SDS011;59240;51.370;-0.486;2022-09-09T04:51:01;20.50;;;9.18;;
71423;SDS011;59240;51.370;-0.486;2022-09-09T04:53:30;26.02;;;9.23;;
71423;SDS011;59240;51.370;-0.486;2022-09-09T04:56:07;20.05;;;8.77;;
71423;SDS011;59240;51.370;-0.486;2022-09-09T04:58:38;28.92;;;9.20;;
71423;SDS011;59240;51.370;-0.486;2022-09-09T05:01:13;24.45;;;9.10;;
71423;SDS011;59240;51.370;-0.486;2022-09-09T05:03:42;18.13;;;8.65;;
71423;SDS011;59240;51.370;-0.486;2022-09-09T05:06:16;18.95;;;8.55;;
71423;SDS011;59240;51.370;-0.486;2022-09-09T05:08:46;23.77;;;9.10;;
71423;SDS011;59240;51.370;-0.486;2022-09-09T05:13:42;19.67;;;8.98;;
71423;SDS011;59240;51.370;-0.486;2022-09-09T05:16:10;26.77;;;9.52;;
71423;SDS011;59240;51.370;-0.486;2022-09-09T05:18:38;20.40;;;9.48;;
71423;SDS011;59240;51.370;-0.486;2022-09-09T05:21:11;20.45;;;9.90;;
71423;SDS011;59240;51.370;-0.486;2022-09-09T05:23:38;19.70;;;10.25;;
71423;SDS011;59240;51.370;-0.486;2022-09-09T05:26:06;30.88;;;12.05;;
71423;SDS011;59240;51.370;-0.486;2022-09-09T05:28:37;26.55;;;10.73;;
71423;SDS011;59240;51.370;-0.486;2022-09-09T05:31:05;26.42;;;11.35;;
71423;SDS011;59240;51.370;-0.486;2022-09-09T05:33:34;28.63;;;11.95;;
71423;SDS011;59240;51.370;-0.486;2022-09-09T05:36:04;32.45;;;12.88;;
71423;SDS011;59240;51.370;-0.486;2022-09-09T05:38:33;30.35;;;12.73;;
71423;SDS011;59240;51.370;-0.486;2022-09-09T05:41:01;32.10;;;13.23;;
71423;SDS011;59240;51.370;-0.486;2022-09-09T05:43:29;32.08;;;12.98;;
71423;SDS011;59240;51.370;-0.486;2022-09-09T05:45:59;32.42;;;14.38;;
71423;SDS011;59240;51.370;-0.486;2022-09-09T05:48:28;28.25;;;14.40;;
71423;SDS011;59240;51.370;-0.486;2022-09-09T05:50:58;29.98;;;13.30;;
71423;SDS011;59240;51.370;-0.486;2022-09-09T05:53:38;23.27;;;13.52;;
71423;SDS011;59240;51.370;-0.486;2022-09-09T05:56:06;23.38;;;13.40;;
71423;SDS011;59240;51.370;-0.486;2022-09-09T05:58:46;24.08;;;14.40;;
71423;SDS011;59240;51.370;-0.486;2022-09-09T06:01:14;31.55;;;14.25;;
71423;SDS011;59240;51.370;-0.486;2022-09-09T06:03:45;33.50;;;13.30;;
71423;SDS011;59240;51.370;-0.486;2022-09-09T06:06:17;23.75;;;13.55;;
71423;SDS011;59240;51.370;-0.486;2022-09-09T06:08:50;22.25;;;13.65;;
71423;SDS011;59240;51.370;-0.486;2022-09-09T06:11:19;22.00;;;12.90;;
71423;SDS011;59240;51.370;-0.486;2022-09-09T06:13:48;25.70;;;14.20;;
71423;SDS011;59240;51.370;-0.486;2022-09-09T06:19:21;24.30;;;13.15;;
71423;SDS011;59240;51.370;-0.486;2022-09-09T06:21:48;26.35;;;13.70;;
71423;SDS011;59240;51.370;-0.486;2022-09-09T06:24:15;26.42;;;14.65;;
71423;SDS011;59240;51.370;-0.486;2022-09-09T06:26:46;29.90;;;14.25;;
71423;SDS011;59240;51.370;-0.486;2022-09-09T06:29:13;25.27;;;13.93;;
71423;SDS011;59240;51.370;-0.486;2022-09-09T06:31:42;25.70;;;13.57;;
71423;SDS011;59240;51.370;-0.486;2022-09-09T06:34:27;21.33;;;13.57;;
71423;SDS011;59240;51.370;-0.486;2022-09-09T06:36:54;18.65;;;13.35;;
71423;SDS011;59240;51.370;-0.486;2022-09-09T06:39:29;22.45;;;12.98;;
71423;SDS011;59240;51.370;-0.486;2022-09-09T06:42:02;33.20;;;14.82;;
71423;SDS011;59240;51.370;-0.486;2022-09-09T06:44:30;23.13;;;15.00;;
71423;SDS011;59240;51.370;-0.486;2022-09-09T06:47:00;26.48;;;14.38;;
71423;SDS011;59240;51.370;-0.486;2022-09-09T06:49:43;24.33;;;14.55;;
71423;SDS011;59240;51.370;-0.486;2022-09-09T06:52:13;23.58;;;15.65;;
71423;SDS011;59240;51.370;-0.486;2022-09-09T06:54:40;21.15;;;12.77;;
71423;SDS011;59240;51.370;-0.486;2022-09-09T06:57:26;23.50;;;13.57;;
71423;SDS011;59240;51.370;-0.486;2022-09-09T07:00:03;21.52;;;12.15;;
71423;SDS011;59240;51.370;-0.486;2022-09-09T07:03:14;21.40;;;13.73;;
71423;SDS011;59240;51.370;-0.486;2022-09-09T07:05:43;26.50;;;15.93;;
71423;SDS011;59240;51.370;-0.486;2022-09-09T07:08:31;18.15;;;12.13;;
71423;SDS011;59240;51.370;-0.486;2022-09-09T07:11:10;20.20;;;12.60;;
71423;SDS011;59240;51.370;-0.486;2022-09-09T07:17:21;16.30;;;10.60;;
71423;SDS011;59240;51.370;-0.486;2022-09-09T07:19:48;14.18;;;9.52;;
71423;SDS011;59240;51.370;-0.486;2022-09-09T07:22:47;18.38;;;10.07;;
71423;SDS011;59240;51.370;-0.486;2022-09-09T07:25:25;15.32;;;8.82;;
71423;SDS011;59240;51.370;-0.486;2022-09-09T07:28:32;16.52;;;8.70;;
71423;SDS011;59240;51.370;-0.486;2022-09-09T07:31:30;15.30;;;8.73;;
71423;SDS011;59240;51.370;-0.486;2022-09-09T07:34:16;10.32;;;8.25;;
71423;SDS011;59240;51.370;-0.486;2022-09-09T07:36:56;14.90;;;9.40;;
71423;SDS011;59240;51.370;-0.486;2022-09-09T07:39:23;11.90;;;8.48;;
71423;SDS011;59240;51.370;-0.486;2022-09-09T07:41:51;11.50;;;8.65;;
71423;SDS011;59240;51.370;-0.486;2022-09-09T07:44:21;13.95;;;7.20;;
71423;SDS011;59240;51.370;-0.486;2022-09-09T07:47:05;14.20;;;8.57;;
71423;SDS011;59240;51.370;-0.486;2022-09-09T07:50:01;13.90;;;10.07;;
71423;SDS011;59240;51.370;-0.486;2022-09-09T07:52:53;14.43;;;9.52;;
71423;SDS011;59240;51.370;-0.486;2022-09-09T07:55:28;16.38;;;9.95;;
71423;SDS011;59240;51.370;-0.486;2022-09-09T08:01:17;12.23;;;7.35;;
71423;SDS011;59240;51.370;-0.486;2022-09-09T08:03:54;7.15;;;5.88;;
71423;SDS011;59240;51.370;-0.486;2022-09-09T08:10:42;10.40;;;6.82;;
71423;SDS011;59240;51.370;-0.486;2022-09-09T08:14:04;9.88;;;7.20;;
71423;SDS011;59240;51.370;-0.486;2022-09-09T08:21:41;11.02;;;7.32;;
71423;SDS011;59240;51.370;-0.486;2022-09-09T08:28:13;15.57;;;9.18;;
71423;SDS011;59240;51.370;-0.486;2022-09-09T08:31:22;20.20;;;11.43;;
71423;SDS011;59240;51.370;-0.486;2022-09-09T08:34:42;17.85;;;11.23;;
71423;SDS011;59240;51.370;-0.486;2022-09-09T08:45:50;17.70;;;11.82;;
71423;SDS011;59240;51.370;-0.486;2022-09-09T08:59:16;26.38;;;12.60;;
71423;SDS011;59240;51.370;-0.486;2022-09-09T09:11:08;15.88;;;9.63;;
71423;SDS011;59240;51.370;-0.486;2022-09-09T09:14:38;16.48;;;8.40;;
71423;SDS011;59240;51.370;-0.486;2022-09-09T09:25:35;13.40;;;6.47;;
71423;SDS011;59240;51.370;-0.486;2022-09-09T09:28:17;10.82;;;6.22;;
71423;SDS011;59240;51.370;-0.486;2022-09-09T09:35:18;12.95;;;6.60;;
71423;SDS011;59240;51.370;-0.486;2022-09-09T09:37:59;11.40;;;6.07;;
71423;SDS011;59240;51.370;-0.486;2022-09-09T09:41:32;8.48;;;4.38;;
71423;SDS011;59240;51.370;-0.486;2022-09-09T09:44:44;10.57;;;5.35;;
71423;SDS011;59240;51.370;-0.486;2022-09-09T09:47:19;10.45;;;4.90;;
71423;SDS011;59240;51.370;-0.486;2022-09-09T09:50:17;8.25;;;4.15;;
71423;SDS011;59240;51.370;-0.486;2022-09-09T09:52:58;7.72;;;4.43;;
71423;SDS011;59240;51.370;-0.486;2022-09-09T09:56:15;9.15;;;4.90;;
71423;SDS011;59240;51.370;-0.486;2022-09-09T09:59:18;9.10;;;5.22;;
71423;SDS011;59240;51.370;-0.486;2022-09-09T10:02:41;13.95;;;4.65;;
71423;SDS011;59240;51.370;-0.486;2022-09-09T10:05:44;10.50;;;4.55;;
71423;SDS011;59240;51.370;-0.486;2022-09-09T10:21:28;7.80;;;3.35;;
71423;SDS011;59240;51.370;-0.486;2022-09-09T10:33:21;4.68;;;2.70;;
71423;SDS011;59240;51.370;-0.486;2022-09-09T10:36:30;8.75;;;3.20;;
71423;SDS011;59240;51.370;-0.486;2022-09-09T10:57:41;4.95;;;2.20;;
71423;SDS011;59240;51.370;-0.486;2022-09-09T11:00:18;5.40;;;2.47;;
71423;SDS011;59240;51.370;-0.486;2022-09-09T11:06:55;7.53;;;3.15;;
71423;SDS011;59240;51.370;-0.486;2022-09-09T11:17:44;5.93;;;3.30;;
71423;SDS011;59240;51.370;-0.486;2022-09-09T11:21:42;6.85;;;3.67;;
71423;SDS011;59240;51.370;-0.486;2022-09-09T11:24:45;7.72;;;3.65;;
71423;SDS011;59240;51.370;-0.486;2022-09-09T11:32:53;6.35;;;3.60;;
71423;SDS011;59240;51.370;-0.486;2022-09-09T11:45:27;8.50;;;4.15;;
71423;SDS011;59240;51.370;-0.486;2022-09-09T12:37:20;5.35;;;2.40;;
71423;SDS011;59240;51.370;-0.486;2022-09-09T12:50:35;5.57;;;2.50;;
71423;SDS011;59240;51.370;-0.486;2022-09-09T13:04:19;4.50;;;1.88;;
71423;SDS011;59240;51.370;-0.486;2022-09-09T13:14:30;4.50;;;1.73;;
71423;SDS011;59240;51.370;-0.486;2022-09-09T13:23:18;6.28;;;2.42;;
71423;SDS011;59240;51.370;-0.486;2022-09-09T13:37:02;5.35;;;2.20;;
71423;SDS011;59240;51.370;-0.486;2022-09-09T13:39:53;4.72;;;2.20;;
71423;SDS011;59240;51.370;-0.486;2022-09-09T13:42:30;4.72;;;2.03;;
71423;SDS011;59240;51.370;-0.486;2022-09-09T13:45:22;4.60;;;2.60;;
71423;SDS011;59240;51.370;-0.486;2022-09-09T13:47:53;2.88;;;1.90;;
71423;SDS011;59240;51.370;-0.486;2022-09-09T13:50:24;4.78;;;2.33;;
71423;SDS011;59240;51.370;-0.486;2022-09-09T13:52:58;3.08;;;1.30;;
71423;SDS011;59240;51.370;-0.486;2022-09-09T13:55:36;2.53;;;1.10;;
71423;SDS011;59240;51.370;-0.486;2022-09-09T13:58:03;4.03;;;1.15;;
71423;SDS011;59240;51.370;-0.486;2022-09-09T14:00:47;2.13;;;1.33;;
71423;SDS011;59240;51.370;-0.486;2022-09-09T14:03:20;2.88;;;1.10;;
71423;SDS011;59240;51.370;-0.486;2022-09-09T14:06:06;2.97;;;1.40;;
71423;SDS011;59240;51.370;-0.486;2022-09-09T14:08:40;3.33;;;1.20;;
71423;SDS011;59240;51.370;-0.486;2022-09-09T14:11:08;3.00;;;0.90;;
71423;SDS011;59240;51.370;-0.486;2022-09-09T14:13:39;3.85;;;1.08;;
71423;SDS011;59240;51.370;-0.486;2022-09-09T14:16:11;1.75;;;1.00;;
71423;SDS011;59240;51.370;-0.486;2022-09-09T14:18:40;3.47;;;1.20;;
71423;SDS011;59240;51.370;-0.486;2022-09-09T14:21:07;3.72;;;1.20;;
71423;SDS011;59240;51.370;-0.486;2022-09-09T14:23:41;3.15;;;1.08;;
71423;SDS011;59240;51.370;-0.486;2022-09-09T14:26:12;2.28;;;1.38;;
71423;SDS011;59240;51.370;-0.486;2022-09-09T14:28:43;4.45;;;1.30;;
71423;SDS011;59240;51.370;-0.486;2022-09-09T14:31:20;2.38;;;1.25;;
71423;SDS011;59240;51.370;-0.486;2022-09-09T14:34:01;2.03;;;1.20;;
71423;SDS011;59240;51.370;-0.486;2022-09-09T14:36:30;5.80;;;1.50;;
71423;SDS011;59240;51.370;-0.486;2022-09-09T14:38:56;2.58;;;1.30;;
71423;SDS011;59240;51.370;-0.486;2022-09-09T14:41:27;3.55;;;1.02;;
71423;SDS011;59240;51.370;-0.486;2022-09-09T14:43:56;4.93;;;1.10;;
71423;SDS011;59240;51.370;-0.486;2022-09-09T14:46:35;1.33;;;0.95;;
71423;SDS011;59240;51.370;-0.486;2022-09-09T14:49:02;3.78;;;1.20;;
71423;SDS011;59240;51.370;-0.486;2022-09-09T14:51:34;3.80;;;1.40;;
71423;SDS011;59240;51.370;-0.486;2022-09-09T14:54:07;3.75;;;1.20;;
71423;SDS011;59240;51.370;-0.486;2022-09-09T14:56:37;2.00;;;1.25;;
71423;SDS011;59240;51.370;-0.486;2022-09-09T14:59:18;2.33;;;1.20;;
71423;SDS011;59240;51.370;-0.486;2022-09-09T15:01:48;1.45;;;1.10;;
71423;SDS011;59240;51.370;-0.486;2022-09-09T15:04:16;3.85;;;1.02;;
71423;SDS011;59240;51.370;-0.486;2022-09-09T15:06:46;1.40;;;0.80;;
71423;SDS011;59240;51.370;-0.486;2022-09-09T15:09:17;1.42;;;1.02;;
71423;SDS011;59240;51.370;-0.486;2022-09-09T15:11:46;3.13;;;1.10;;
71423;SDS011;59240;51.370;-0.486;2022-09-09T15:14:13;4.07;;;1.13;;
71423;SDS011;59240;51.370;-0.486;2022-09-09T15:16:40;4.88;;;1.20;;
71423;SDS011;59240;51.370;-0.486;2022-09-09T15:19:10;2.60;;;1.20;;
71423;SDS011;59240;51.370;-0.486;2022-09-09T15:21:39;2.05;;;1.00;;
71423;SDS011;59240;51.370;-0.486;2022-09-09T15:24:06;1.52;;;0.98;;
71423;SDS011;59240;51.370;-0.486;2022-09-09T15:26:37;1.23;;;1.10;;
71423;SDS011;59240;51.370;-0.486;2022-09-09T15:29:05;1.88;;;1.00;;
71423;SDS011;59240;51.370;-0.486;2022-09-09T15:31:34;1.65;;;1.00;;
71423;SDS011;59240;51.370;-0.486;2022-09-09T15:34:03;4.25;;;0.90;;
71423;SDS011;59240;51.370;-0.486;2022-09-09T15:36:31;1.80;;;0.80;;
71423;SDS011;59240;51.370;-0.486;2022-09-09T15:39:10;2.38;;;1.00;;
71423;SDS011;59240;51.370;-0.486;2022-09-09T15:41:39;2.85;;;1.00;;
71423;SDS011;59240;51.370;-0.486;2022-09-09T15:44:07;1.27;;;0.80;;
71423;SDS011;59240;51.370;-0.486;2022-09-09T15:46:44;3.15;;;1.00;;
71423;SDS011;59240;51.370;-0.486;2022-09-09T15:49:14;5.20;;;1.20;;
71423;SDS011;59240;51.370;-0.486;2022-09-09T15:51:46;2.88;;;1.38;;
71423;SDS011;59240;51.370;-0.486;2022-09-09T15:54:22;2.60;;;1.17;;
71423;SDS011;59240;51.370;-0.486;2022-09-09T15:59:24;4.20;;;1.50;;
71423;SDS011;59240;51.370;-0.486;2022-09-09T16:01:54;4.57;;;1.33;;
71423;SDS011;59240;51.370;-0.486;2022-09-09T16:04:22;6.22;;;1.60;;
71423;SDS011;59240;51.370;-0.486;2022-09-09T16:06:53;4.82;;;1.80;;
71423;SDS011;59240;51.370;-0.486;2022-09-09T16:09:25;4.05;;;1.50;;
71423;SDS011;59240;51.370;-0.486;2022-09-09T16:11:54;5.47;;;1.80;;
71423;SDS011;59240;51.370;-0.486;2022-09-09T16:14:22;1.98;;;1.30;;
71423;SDS011;59240;51.370;-0.486;2022-09-09T16:16:52;1.48;;;1.00;;
71423;SDS011;59240;51.370;-0.486;2022-09-09T16:19:20;3.10;;;1.35;;
71423;SDS011;59240;51.370;-0.486;2022-09-09T16:21:47;1.85;;;1.25;;
71423;SDS011;59240;51.370;-0.486;2022-09-09T16:24:16;3.33;;;1.80;;
71423;SDS011;59240;51.370;-0.486;2022-09-09T16:26:45;3.25;;;1.50;;
71423;SDS011;59240;51.370;-0.486;2022-09-09T16:29:18;3.60;;;2.10;;
71423;SDS011;59240;51.370;-0.486;2022-09-09T16:31:47;1.83;;;1.10;;
71423;SDS011;59240;51.370;-0.486;2022-09-09T16:34:18;1.95;;;1.05;;
71423;SDS011;59240;51.370;-0.486;2022-09-09T16:36:46;2.20;;;0.90;;
71423;SDS011;59240;51.370;-0.486;2022-09-09T16:39:15;3.88;;;1.08;;
71423;SDS011;59240;51.370;-0.486;2022-09-09T16:41:46;1.95;;;1.05;;
71423;SDS011;59240;51.370;-0.486;2022-09-09T16:44:18;2.45;;;1.20;;
71423;SDS011;59240;51.370;-0.486;2022-09-09T16:46:46;4.85;;;0.93;;
71423;SDS011;59240;51.370;-0.486;2022-09-09T16:49:25;2.42;;;1.02;;
71423;SDS011;59240;51.370;-0.486;2022-09-09T16:52:00;3.45;;;1.33;;
71423;SDS011;59240;51.370;-0.486;2022-09-09T16:54:29;4.40;;;1.33;;
71423;SDS011;59240;51.370;-0.486;2022-09-09T16:56:57;4.57;;;1.23;;
71423;SDS011;59240;51.370;-0.486;2022-09-09T16:59:26;3.00;;;1.20;;
71423;SDS011;59240;51.370;-0.486;2022-09-09T17:01:53;4.32;;;1.42;;
71423;SDS011;59240;51.370;-0.486;2022-09-09T17:04:24;2.17;;;1.40;;
71423;SDS011;59240;51.370;-0.486;2022-09-09T17:06:54;2.60;;;1.40;;
71423;SDS011;59240;51.370;-0.486;2022-09-09T17:09:24;2.28;;;1.30;;
71423;SDS011;59240;51.370;-0.486;2022-09-09T17:11:55;2.58;;;1.17;;
71423;SDS011;59240;51.370;-0.486;2022-09-09T17:14:24;5.25;;;1.25;;
71423;SDS011;59240;51.370;-0.486;2022-09-09T17:16:51;5.00;;;1.75;;
71423;SDS011;59240;51.370;-0.486;2022-09-09T17:19:18;2.45;;;1.40;;
71423;SDS011;59240;51.370;-0.486;2022-09-09T17:21:45;6.78;;;1.55;;
71423;SDS011;59240;51.370;-0.486;2022-09-09T17:24:36;3.45;;;1.48;;
71423;SDS011;59240;51.370;-0.486;2022-09-09T17:27:04;4.30;;;1.73;;
71423;SDS011;59240;51.370;-0.486;2022-09-09T17:29:31;4.10;;;1.50;;
71423;SDS011;59240;51.370;-0.486;2022-09-09T17:31:58;4.22;;;1.23;;
71423;SDS011;59240;51.370;-0.486;2022-09-09T17:34:25;5.20;;;1.50;;
71423;SDS011;59240;51.370;-0.486;2022-09-09T17:36:51;5.45;;;1.63;;
71423;SDS011;59240;51.370;-0.486;2022-09-09T17:39:18;3.45;;;1.90;;
71423;SDS011;59240;51.370;-0.486;2022-09-09T17:41:45;4.72;;;2.05;;
71423;SDS011;59240;51.370;-0.486;2022-09-09T17:44:11;3.38;;;1.50;;
71423;SDS011;59240;51.370;-0.486;2022-09-09T17:46:39;3.05;;;1.30;;
71423;SDS011;59240;51.370;-0.486;2022-09-09T17:49:14;4.50;;;1.60;;
71423;SDS011;59240;51.370;-0.486;2022-09-09T17:54:14;2.17;;;1.15;;
71423;SDS011;59240;51.370;-0.486;2022-09-09T17:56:43;5.93;;;1.48;;
71423;SDS011;59240;51.370;-0.486;2022-09-09T17:59:14;2.15;;;1.00;;
71423;SDS011;59240;51.370;-0.486;2022-09-09T18:01:43;3.00;;;1.15;;
71423;SDS011;59240;51.370;-0.486;2022-09-09T18:04:21;1.20;;;1.00;;
71423;SDS011;59240;51.370;-0.486;2022-09-09T18:06:54;2.85;;;1.33;;
71423;SDS011;59240;51.370;-0.486;2022-09-09T18:09:22;3.70;;;1.83;;
71423;SDS011;59240;51.370;-0.486;2022-09-09T18:11:52;1.42;;;1.20;;
71423;SDS011;59240;51.370;-0.486;2022-09-09T18:14:31;1.55;;;1.08;;
71423;SDS011;59240;51.370;-0.486;2022-09-09T18:16:59;5.75;;;1.60;;
71423;SDS011;59240;51.370;-0.486;2022-09-09T18:19:28;3.33;;;1.42;;
71423;SDS011;59240;51.370;-0.486;2022-09-09T18:21:56;1.77;;;1.52;;
71423;SDS011;59240;51.370;-0.486;2022-09-09T18:24:27;2.78;;;1.35;;
71423;SDS011;59240;51.370;-0.486;2022-09-09T18:26:54;3.22;;;1.60;;
71423;SDS011;59240;51.370;-0.486;2022-09-09T18:29:21;2.08;;;1.60;;
71423;SDS011;59240;51.370;-0.486;2022-09-09T18:31:52;2.08;;;1.23;;
71423;SDS011;59240;51.370;-0.486;2022-09-09T18:34:21;1.90;;;1.20;;
71423;SDS011;59240;51.370;-0.486;2022-09-09T18:36:51;3.92;;;1.30;;
71423;SDS011;59240;51.370;-0.486;2022-09-09T18:39:23;5.70;;;2.15;;
71423;SDS011;59240;51.370;-0.486;2022-09-09T18:41:54;4.10;;;2.45;;
71423;SDS011;59240;51.370;-0.486;2022-09-09T18:44:25;5.15;;;1.52;;
71423;SDS011;59240;51.370;-0.486;2022-09-09T18:46:54;3.35;;;1.40;;
71423;SDS011;59240;51.370;-0.486;2022-09-09T18:49:21;4.05;;;1.48;;
71423;SDS011;59240;51.370;-0.486;2022-09-09T18:51:53;3.38;;;1.90;;
71423;SDS011;59240;51.370;-0.486;2022-09-09T18:54:22;4.63;;;1.58;;
71423;SDS011;59240;51.370;-0.486;2022-09-09T18:56:58;4.50;;;1.50;;
71423;SDS011;59240;51.370;-0.486;2022-09-09T18:59:28;4.22;;;1.52;;
71423;SDS011;59240;51.370;-0.486;2022-09-09T19:01:58;3.42;;;1.80;;
71423;SDS011;59240;51.370;-0.486;2022-09-09T19:04:27;2.65;;;1.50;;
71423;SDS011;59240;51.370;-0.486;2022-09-09T19:06:54;2.22;;;1.50;;
71423;SDS011;59240;51.370;-0.486;2022-09-09T19:09:26;4.15;;;1.80;;
71423;SDS011;59240;51.370;-0.486;2022-09-09T19:11:57;4.72;;;1.85;;
71423;SDS011;59240;51.370;-0.486;2022-09-09T19:14:28;5.65;;;2.05;;
71423;SDS011;59240;51.370;-0.486;2022-09-09T19:17:00;5.80;;;2.00;;
71423;SDS011;59240;51.370;-0.486;2022-09-09T19:19:40;4.40;;;1.95;;
71423;SDS011;59240;51.370;-0.486;2022-09-09T19:22:20;7.22;;;2.17;;
71423;SDS011;59240;51.370;-0.486;2022-09-09T19:24:50;3.80;;;1.83;;
71423;SDS011;59240;51.370;-0.486;2022-09-09T19:27:48;4.03;;;1.98;;
71423;SDS011;59240;51.370;-0.486;2022-09-09T19:30:15;8.38;;;2.13;;
71423;SDS011;59240;51.370;-0.486;2022-09-09T19:32:51;2.35;;;2.08;;
71423;SDS011;59240;51.370;-0.486;2022-09-09T19:35:19;5.22;;;2.30;;
71423;SDS011;59240;51.370;-0.486;2022-09-09T19:37:47;12.00;;;3.10;;
71423;SDS011;59240;51.370;-0.486;2022-09-09T19:40:17;7.70;;;3.03;;
71423;SDS011;59240;51.370;-0.486;2022-09-09T19:42:43;5.10;;;2.45;;
71423;SDS011;59240;51.370;-0.486;2022-09-09T19:45:10;9.48;;;3.80;;